Time;durP1;ratioP1;P1;durP2;ratioP2;P2;SDS_P1;SDS_P2;PMS_P1;PMS_P2;Temp;Humidity;BMP_temperature;BMP_pressure;BME280_temperature;BME280_humidity;BME280_pressure;Samples;Min_cycle;Max_cycle;Signal;HPM_P1;HPM_P2
2022/10/29 00:01:45;;;;;;;6.40;1.73;;;12.30;99.90;;;;;;4996594;28;20037;-80
2022/10/29 00:04:11;;;;;;;3.47;1.67;;;12.30;99.90;;;;;;4999222;28;20037;-79
2022/10/29 00:06:37;;;;;;;5.05;1.98;;;12.30;99.90;;;;;;5015860;28;20048;-80
2022/10/29 00:09:03;;;;;;;6.15;1.90;;;12.20;99.90;;;;;;5016410;28;20076;-79
2022/10/29 00:11:29;;;;;;;4.20;1.70;;;12.20;99.90;;;;;;5032732;28;20142;-79
2022/10/29 00:13:57;;;;;;;5.60;1.55;;;12.20;99.90;;;;;;5031945;28;20076;-83
2022/10/29 00:16:33;;;;;;;4.65;1.80;;;12.10;99.90;;;;;;5031814;28;20041;-83
2022/10/29 00:18:58;;;;;;;5.28;1.58;;;12.10;99.90;;;;;;5032076;28;20045;-83
2022/10/29 00:21:25;;;;;;;6.20;1.88;;;12.10;99.90;;;;;;5032397;28;20041;-83
2022/10/29 00:23:52;;;;;;;5.15;1.75;;;12.10;99.90;;;;;;5031360;28;20499;-83
2022/10/29 00:26:19;;;;;;;2.95;1.50;;;12.10;99.90;;;;;;5032329;28;20095;-83
2022/10/29 00:28:46;;;;;;;3.30;1.50;;;12.10;99.90;;;;;;5031916;28;20498;-82
2022/10/29 00:31:15;;;;;;;4.97;1.60;;;12.10;99.90;;;;;;5031923;28;20049;-81
2022/10/29 00:33:41;;;;;;;3.70;1.52;;;12.00;99.90;;;;;;5016074;28;20155;-81
2022/10/29 00:36:13;;;;;;;4.03;1.45;;;12.00;99.90;;;;;;5031654;28;20103;-81
2022/10/29 00:38:38;;;;;;;5.35;1.60;;;12.00;99.90;;;;;;5015627;28;20045;-80
2022/10/29 00:41:06;;;;;;;3.35;1.73;;;12.00;99.90;;;;;;5031595;28;20037;-80
2022/10/29 00:43:34;;;;;;;4.00;2.17;;;12.00;99.90;;;;;;5031717;28;20056;-80
2022/10/29 00:46:11;;;;;;;3.97;1.50;;;12.00;99.90;;;;;;5015215;28;20041;-80
2022/10/29 00:48:44;;;;;;;4.75;1.80;;;12.00;99.90;;;;;;5032428;28;20049;-79
2022/10/29 00:51:13;;;;;;;4.18;1.80;;;12.10;99.90;;;;;;5018374;28;20048;-79
2022/10/29 00:53:43;;;;;;;2.58;1.35;;;12.10;99.90;;;;;;5031743;28;20053;-79
2022/10/29 00:56:10;;;;;;;6.05;1.55;;;12.10;99.90;;;;;;5032064;28;20048;-79
2022/10/29 00:58:36;;;;;;;4.47;1.35;;;12.00;99.90;;;;;;5032050;28;20041;-79
2022/10/29 01:01:02;;;;;;;5.15;1.73;;;12.00;99.90;;;;;;4999119;28;20124;-79
2022/10/29 01:03:27;;;;;;;7.28;2.28;;;12.00;99.90;;;;;;5015209;28;20073;-80
2022/10/29 01:05:53;;;;;;;9.68;2.47;;;12.10;99.90;;;;;;5015052;28;20049;-80
2022/10/29 01:08:22;;;;;;;6.47;2.55;;;12.10;99.90;;;;;;5006995;28;20044;-80
2022/10/29 01:10:57;;;;;;;7.30;2.30;;;12.10;99.90;;;;;;5015084;28;20049;-80
2022/10/29 01:13:41;;;;;;;4.95;2.30;;;12.10;99.90;;;;;;5024322;28;20119;-80
2022/10/29 01:16:10;;;;;;;8.35;2.53;;;12.20;99.90;;;;;;5029333;28;20045;-80
2022/10/29 01:18:54;;;;;;;5.70;2.08;;;12.20;99.90;;;;;;5033640;28;20049;-80
2022/10/29 01:21:58;;;;;;;9.82;2.72;;;12.30;99.90;;;;;;5035269;28;20088;-80
2022/10/29 01:24:50;;;;;;;8.07;2.47;;;12.30;99.90;;;;;;4962570;28;20096;-80
2022/10/29 01:27:16;;;;;;;7.40;2.50;;;12.40;99.90;;;;;;4978928;28;20620;-80
2022/10/29 01:30:03;;;;;;;9.05;3.45;;;12.50;99.90;;;;;;5014303;28;20124;-80
2022/10/29 01:32:50;;;;;;;5.68;2.70;;;12.50;99.90;;;;;;4998938;28;20050;-80
2022/10/29 01:35:29;;;;;;;5.90;2.17;;;12.60;99.90;;;;;;5035141;28;20038;-80
2022/10/29 01:38:12;;;;;;;5.45;2.45;;;12.60;99.90;;;;;;5035051;28;20123;-81
2022/10/29 01:40:56;;;;;;;10.02;3.08;;;12.60;99.90;;;;;;5035412;28;20041;-81
2022/10/29 01:43:46;;;;;;;5.43;2.25;;;12.60;99.90;;;;;;5019430;28;20052;-81
2022/10/29 01:46:15;;;;;;;6.88;2.38;;;12.60;99.90;;;;;;5032789;28;20116;-81
2022/10/29 01:48:48;;;;;;;4.05;2.15;;;12.60;99.90;;;;;;5034764;28;20044;-81
2022/10/29 01:51:24;;;;;;;6.45;2.40;;;12.60;99.90;;;;;;5041514;28;20450;-81
2022/10/29 01:53:51;;;;;;;5.70;2.33;;;12.60;99.90;;;;;;5034807;28;20049;-81
2022/10/29 01:56:16;;;;;;;4.10;2.00;;;12.60;99.90;;;;;;5034641;28;20046;-81
2022/10/29 01:58:46;;;;;;;2.88;1.65;;;13.50;99.90;;;;;;5033912;28;20045;-81
2022/10/29 02:01:12;;;;;;;4.63;2.30;;;12.60;99.90;;;;;;5015001;28;20033;-81
2022/10/29 02:04:00;;;;;;;5.35;2.80;;;12.60;99.90;;;;;;4999105;28;20052;-81
2022/10/29 02:06:38;;;;;;;5.88;2.63;;;12.50;99.90;;;;;;5032538;28;20076;-80
2022/10/29 02:09:20;;;;;;;6.22;2.90;;;12.50;99.90;;;;;;5035001;28;20368;-80
2022/10/29 02:11:56;;;;;;;6.35;2.88;;;12.50;99.90;;;;;;5034557;28;20128;-80
2022/10/29 02:14:50;;;;;;;4.80;2.38;;;12.50;99.90;;;;;;5034827;28;20053;-80
2022/10/29 02:17:17;;;;;;;5.25;2.80;;;12.50;99.90;;;;;;5034386;28;20053;-80
2022/10/29 02:19:42;;;;;;;5.22;2.45;;;12.50;99.90;;;;;;5018000;28;20123;-80
2022/10/29 02:22:08;;;;;;;5.45;2.60;;;12.50;99.90;;;;;;5034637;28;20491;-80
2022/10/29 02:24:34;;;;;;;5.18;2.30;;;12.50;99.90;;;;;;5034404;28;20041;-80
2022/10/29 02:27:00;;;;;;;7.35;2.75;;;12.50;99.90;;;;;;5017507;28;20080;-81
2022/10/29 02:29:25;;;;;;;4.50;2.20;;;12.50;99.90;;;;;;5017887;28;20088;-80
2022/10/29 02:31:51;;;;;;;3.67;1.83;;;12.50;99.90;;;;;;5033989;28;20482;-80
2022/10/29 02:34:17;;;;;;;3.75;2.13;;;12.50;99.90;;;;;;5034335;28;20049;-80
2022/10/29 02:36:42;;;;;;;4.05;2.30;;;12.50;99.90;;;;;;5012049;28;20106;-80
2022/10/29 02:39:08;;;;;;;3.40;2.17;;;12.50;99.90;;;;;;5041336;28;20041;-80
2022/10/29 02:41:34;;;;;;;5.32;2.15;;;12.50;99.90;;;;;;5021008;28;20080;-80
2022/10/29 02:43:59;;;;;;;4.32;2.20;;;12.50;99.90;;;;;;5062652;22;20098;-82
2022/10/29 02:46:25;;;;;;;4.50;2.33;;;12.60;99.90;;;;;;5021094;28;20045;-82
2022/10/29 02:48:51;;;;;;;3.55;1.80;;;12.60;99.90;;;;;;5053543;28;20034;-82
2022/10/29 02:51:17;;;;;;;4.70;2.50;;;12.60;99.90;;;;;;5051297;28;20071;-82
2022/10/29 02:53:43;;;;;;;8.07;2.45;;;12.60;99.90;;;;;;5053492;28;20069;-82
2022/10/29 02:56:09;;;;;;;3.72;2.35;;;12.60;99.90;;;;;;5036581;28;20041;-82
2022/10/29 02:58:35;;;;;;;7.22;2.55;;;12.60;99.90;;;;;;5017426;28;20041;-82
2022/10/29 03:01:01;;;;;;;6.88;2.72;;;12.70;99.90;;;;;;5017041;28;20040;-81
2022/10/29 03:03:27;;;;;;;5.05;2.22;;;12.70;99.90;;;;;;5016154;28;20045;-81
2022/10/29 03:05:53;;;;;;;3.35;1.95;;;12.70;99.90;;;;;;5035623;28;20487;-81
2022/10/29 03:08:18;;;;;;;3.15;1.77;;;12.70;99.90;;;;;;5051766;28;20394;-81
2022/10/29 03:11:05;;;;;;;3.45;1.85;;;12.70;99.90;;;;;;5017964;28;20045;-81
2022/10/29 03:13:43;;;;;;;4.95;2.13;;;12.70;99.90;;;;;;5011011;28;20048;-81
2022/10/29 03:16:15;;;;;;;4.03;2.03;;;12.70;99.90;;;;;;4999783;28;20041;-81
2022/10/29 03:18:40;;;;;;;3.65;2.15;;;12.60;99.90;;;;;;5027619;28;20112;-80
2022/10/29 03:21:06;;;;;;;6.05;2.45;;;13.20;99.90;;;;;;5033148;28;20160;-80
2022/10/29 03:23:32;;;;;;;3.88;2.05;;;12.70;99.90;;;;;;5034895;28;20396;-80
2022/10/29 03:25:57;;;;;;;4.75;2.42;;;12.70;99.90;;;;;;5036081;28;20472;-80
2022/10/29 03:28:26;;;;;;;3.53;1.88;;;12.70;99.90;;;;;;5053364;28;20091;-80
2022/10/29 03:30:52;;;;;;;2.83;1.60;;;12.70;99.90;;;;;;5021865;28;20037;-80
2022/10/29 03:33:18;;;;;;;3.05;1.77;;;12.70;99.90;;;;;;5035591;28;20049;-81
2022/10/29 03:35:43;;;;;;;3.35;1.88;;;12.70;99.90;;;;;;5016829;28;20041;-82
2022/10/29 03:38:09;;;;;;;9.75;2.35;;;12.70;99.90;;;;;;5034897;28;20084;-82
2022/10/29 03:40:35;;;;;;;6.63;2.65;;;12.70;99.90;;;;;;5008318;28;20049;-82
2022/10/29 03:43:00;;;;;;;3.78;1.90;;;12.70;99.90;;;;;;5011664;28;20381;-82
2022/10/29 03:45:26;;;;;;;3.25;1.80;;;12.60;99.90;;;;;;5034698;28;20056;-82
2022/10/29 03:47:52;;;;;;;3.05;1.70;;;12.70;99.90;;;;;;5053109;28;20041;-82
2022/10/29 03:50:18;;;;;;;4.43;2.20;;;12.60;99.90;;;;;;5037327;28;20053;-81
2022/10/29 03:52:43;;;;;;;3.88;2.15;;;12.60;99.90;;;;;;5023954;28;20041;-81
2022/10/29 03:55:09;;;;;;;3.17;1.88;;;12.70;99.90;;;;;;5016392;28;20050;-81
2022/10/29 03:57:35;;;;;;;3.22;1.80;;;12.70;99.90;;;;;;5032998;28;20369;-81
2022/10/29 04:00:03;;;;;;;5.30;2.45;;;12.70;99.90;;;;;;5033821;28;20037;-81
2022/10/29 04:02:29;;;;;;;4.53;2.45;;;12.60;99.90;;;;;;5030708;28;20041;-80
2022/10/29 04:04:55;;;;;;;4.15;2.30;;;12.70;99.90;;;;;;5000136;28;20064;-80
2022/10/29 04:07:21;;;;;;;3.15;1.67;;;12.70;99.90;;;;;;4999743;28;20038;-80
2022/10/29 04:09:46;;;;;;;3.58;1.88;;;12.70;99.90;;;;;;5032440;28;20041;-80
2022/10/29 04:12:12;;;;;;;4.10;2.22;;;12.70;99.90;;;;;;5049380;28;20032;-80
2022/10/29 04:14:38;;;;;;;4.72;2.47;;;12.70;99.90;;;;;;5023897;28;20476;-80
2022/10/29 04:17:04;;;;;;;4.32;2.35;;;12.70;99.90;;;;;;5016248;28;20048;-80
2022/10/29 04:19:29;;;;;;;4.03;1.92;;;12.70;99.90;;;;;;5003038;28;20475;-80
2022/10/29 04:21:55;;;;;;;13.23;2.75;;;12.70;99.90;;;;;;5038774;28;20044;-80
2022/10/29 04:24:21;;;;;;;7.70;3.20;;;12.70;99.90;;;;;;5017293;28;20091;-80
2022/10/29 04:26:46;;;;;;;5.15;2.60;;;12.70;99.90;;;;;;5032247;28;20037;-80
2022/10/29 04:29:12;;;;;;;5.13;2.58;;;12.70;99.90;;;;;;4999818;28;20136;-80
2022/10/29 04:31:38;;;;;;;4.60;2.40;;;12.70;99.90;;;;;;5020823;28;20052;-80
2022/10/29 04:34:06;;;;;;;5.28;2.40;;;12.70;99.90;;;;;;5031498;28;20115;-80
2022/10/29 04:36:32;;;;;;;7.35;2.80;;;12.70;99.90;;;;;;5034836;28;20036;-80
2022/10/29 04:38:58;;;;;;;5.50;2.63;;;12.70;99.90;;;;;;5052359;28;20178;-80
2022/10/29 04:41:23;;;;;;;6.82;3.42;;;12.70;99.90;;;;;;5035022;28;20052;-81
2022/10/29 04:43:49;;;;;;;4.90;2.95;;;12.80;99.90;;;;;;5047599;28;20130;-81
2022/10/29 04:46:15;;;;;;;6.38;3.03;;;12.70;99.90;;;;;;5052194;28;20167;-81
2022/10/29 04:48:41;;;;;;;6.82;3.30;;;12.80;99.90;;;;;;5053173;28;20037;-81
2022/10/29 04:51:06;;;;;;;5.70;2.40;;;12.80;99.90;;;;;;5032177;28;20045;-81
2022/10/29 04:53:32;;;;;;;6.50;3.17;;;12.70;99.90;;;;;;5033137;28;20128;-81
2022/10/29 04:56:04;;;;;;;7.43;3.33;;;12.80;99.90;;;;;;5024840;28;20049;-81
2022/10/29 04:58:30;;;;;;;8.57;3.05;;;12.80;99.90;;;;;;5037712;28;20394;-81
2022/10/29 05:01:06;;;;;;;7.03;3.60;;;12.70;99.90;;;;;;5035854;28;20052;-81
2022/10/29 05:03:32;;;;;;;7.43;3.35;;;12.70;99.90;;;;;;5045211;28;20045;-80
2022/10/29 05:06:00;;;;;;;6.70;3.13;;;12.70;99.90;;;;;;5056160;28;20052;-80
2022/10/29 05:08:26;;;;;;;4.75;2.67;;;12.70;99.90;;;;;;5024248;28;20480;-80
2022/10/29 05:10:52;;;;;;;8.88;3.17;;;12.70;99.90;;;;;;5019393;28;20047;-80
2022/10/29 05:13:17;;;;;;;5.13;2.90;;;12.70;99.90;;;;;;5004240;28;20041;-80
2022/10/29 05:15:49;;;;;;;6.10;2.88;;;12.70;99.90;;;;;;5014249;28;20088;-80
2022/10/29 05:18:15;;;;;;;7.25;2.90;;;12.70;99.90;;;;;;5035983;28;20044;-80
2022/10/29 05:20:40;;;;;;;6.03;3.35;;;13.00;99.90;;;;;;5019402;28;20045;-80
2022/10/29 05:23:09;;;;;;;8.25;3.38;;;12.60;99.90;;;;;;5003081;28;20396;-80
2022/10/29 05:25:36;;;;;;;5.63;3.15;;;12.60;99.90;;;;;;5020789;28;20068;-79
2022/10/29 05:28:12;;;;;;;4.90;2.42;;;12.60;99.90;;;;;;5035447;28;20052;-80
2022/10/29 05:30:39;;;;;;;5.60;3.33;;;12.60;99.90;;;;;;5043399;28;20052;-81
2022/10/29 05:33:09;;;;;;;6.38;3.17;;;12.60;99.90;;;;;;5055076;28;20056;-82
2022/10/29 05:35:35;;;;;;;5.63;3.08;;;12.60;99.90;;;;;;5033351;28;20037;-81
2022/10/29 05:38:01;;;;;;;9.07;2.92;;;12.60;99.90;;;;;;5018898;28;20103;-81
2022/10/29 05:40:26;;;;;;;6.43;3.40;;;12.60;99.90;;;;;;5035517;28;20037;-82
2022/10/29 05:42:52;;;;;;;7.22;3.53;;;12.60;99.90;;;;;;5018528;28;20099;-82
2022/10/29 05:45:18;;;;;;;5.65;2.70;;;12.60;99.90;;;;;;5023694;28;20072;-82
2022/10/29 05:47:44;;;;;;;6.95;3.15;;;12.60;99.90;;;;;;5036313;28;20068;-82
2022/10/29 05:50:11;;;;;;;5.95;2.78;;;12.50;99.90;;;;;;5046454;28;20390;-81
2022/10/29 05:52:37;;;;;;;4.35;2.50;;;12.60;99.90;;;;;;5058439;28;20083;-81
2022/10/29 05:55:04;;;;;;;5.00;2.63;;;12.50;99.90;;;;;;5023515;28;20041;-81
2022/10/29 05:57:29;;;;;;;6.10;2.50;;;12.60;99.90;;;;;;5028390;28;20041;-81
2022/10/29 05:59:55;;;;;;;6.00;2.47;;;12.60;99.90;;;;;;5054194;28;20525;-81
2022/10/29 06:02:21;;;;;;;5.63;2.90;;;12.60;99.90;;;;;;5052382;28;20048;-81
2022/10/29 06:04:46;;;;;;;5.03;2.65;;;12.60;99.90;;;;;;5033985;28;20095;-79
2022/10/29 06:07:12;;;;;;;6.65;3.10;;;12.60;99.90;;;;;;5047120;28;20139;-79
2022/10/29 06:09:38;;;;;;;5.50;2.55;;;12.60;99.90;;;;;;5001834;28;20044;-79
2022/10/29 06:12:04;;;;;;;5.40;2.65;;;12.60;99.90;;;;;;5018186;28;20045;-79
2022/10/29 06:14:30;;;;;;;4.68;2.13;;;12.60;99.90;;;;;;5034790;28;20095;-79
2022/10/29 06:16:56;;;;;;;5.32;2.35;;;12.60;99.90;;;;;;5046777;28;20143;-79
2022/10/29 06:19:21;;;;;;;5.65;2.03;;;12.60;99.90;;;;;;5022731;28;20395;-79
2022/10/29 06:21:47;;;;;;;4.90;2.05;;;12.60;99.90;;;;;;5035699;28;20590;-81
2022/10/29 06:24:12;;;;;;;5.25;2.30;;;12.60;99.90;;;;;;5018896;28;20037;-81
2022/10/29 06:26:39;;;;;;;5.35;2.42;;;12.60;99.90;;;;;;5030090;28;20041;-81
2022/10/29 06:29:05;;;;;;;5.03;2.53;;;12.70;99.90;;;;;;5020489;28;20048;-81
2022/10/29 06:31:31;;;;;;;10.23;2.92;;;12.70;99.90;;;;;;5055074;28;20040;-81
2022/10/29 06:33:57;;;;;;;4.93;2.45;;;12.70;99.90;;;;;;5041528;28;20499;-81
2022/10/29 06:36:23;;;;;;;7.70;3.00;;;12.70;99.90;;;;;;5034996;28;20791;-81
2022/10/29 06:38:48;;;;;;;3.75;1.90;;;12.70;99.90;;;;;;5031847;28;20498;-81
2022/10/29 06:41:14;;;;;;;5.82;2.20;;;12.70;99.90;;;;;;5037773;28;20084;-81
2022/10/29 06:43:40;;;;;;;7.25;2.55;;;12.70;99.90;;;;;;5013310;28;20053;-81
2022/10/29 06:46:06;;;;;;;4.75;2.03;;;12.80;99.90;;;;;;5034888;28;20075;-81
2022/10/29 06:48:31;;;;;;;8.60;2.67;;;12.80;99.90;;;;;;5035125;28;20046;-81
2022/10/29 06:50:59;;;;;;;4.15;2.30;;;12.80;99.90;;;;;;5047469;28;20044;-81
2022/10/29 06:53:24;;;;;;;7.03;3.72;;;12.80;99.90;;;;;;5043651;28;20128;-79
2022/10/29 06:55:50;;;;;;;7.50;2.00;;;12.80;99.90;;;;;;5020812;28;20127;-79
2022/10/29 06:58:18;;;;;;;6.40;2.40;;;12.90;99.90;;;;;;5028606;28;20151;-79
2022/10/29 07:00:44;;;;;;;11.73;2.97;;;12.90;99.90;;;;;;5033787;28;20128;-79
2022/10/29 07:03:14;;;;;;;6.05;2.63;;;12.90;99.90;;;;;;5021170;28;20549;-79
2022/10/29 07:05:40;;;;;;;9.68;2.78;;;13.00;99.90;;;;;;5051947;28;20567;-78
2022/10/29 07:08:06;;;;;;;14.13;3.20;;;12.90;99.90;;;;;;5032108;28;20040;-79
2022/10/29 07:10:33;;;;;;;7.05;3.00;;;13.10;99.90;;;;;;5018232;28;20047;-80
2022/10/29 07:12:59;;;;;;;16.88;3.53;;;13.10;99.90;;;;;;5018304;28;20041;-80
2022/10/29 07:15:25;;;;;;;12.85;3.42;;;13.10;99.90;;;;;;5030650;28;20045;-81
2022/10/29 07:18:05;;;;;;;9.20;3.10;;;13.10;99.90;;;;;;5020140;28;20040;-80
2022/10/29 07:20:33;;;;;;;11.90;3.97;;;13.10;99.90;;;;;;5028372;28;20116;-80
2022/10/29 07:23:00;;;;;;;10.30;3.38;;;13.10;99.90;;;;;;5034350;28;20040;-80
2022/10/29 07:25:27;;;;;;;10.57;3.33;;;13.10;99.90;;;;;;5018368;28;20457;-80
2022/10/29 07:27:53;;;;;;;10.48;3.92;;;13.10;99.90;;;;;;5017680;28;20044;-79
2022/10/29 07:30:19;;;;;;;9.98;3.42;;;13.20;99.90;;;;;;5033317;28;20042;-79
2022/10/29 07:32:45;;;;;;;18.38;3.72;;;13.20;99.90;;;;;;5018141;28;20091;-79
2022/10/29 07:35:11;;;;;;;9.43;4.40;;;13.20;99.90;;;;;;5051109;28;20116;-78
2022/10/29 07:37:37;;;;;;;14.10;4.10;;;13.30;99.90;;;;;;5043123;28;20132;-79
2022/10/29 07:40:03;;;;;;;9.70;4.22;;;13.30;99.90;;;;;;5002805;28;20045;-79
2022/10/29 07:42:29;;;;;;;11.50;4.57;;;13.30;99.90;;;;;;5041667;28;20449;-79
2022/10/29 07:44:55;;;;;;;13.30;5.95;;;13.30;99.90;;;;;;5046645;28;20129;-79
2022/10/29 07:47:21;;;;;;;11.95;5.38;;;13.30;99.90;;;;;;5052725;28;20045;-79
2022/10/29 07:49:46;;;;;;;16.88;4.90;;;13.20;99.90;;;;;;5057725;28;20039;-79
2022/10/29 07:52:12;;;;;;;15.57;5.47;;;13.30;99.90;;;;;;5072922;28;20039;-80
2022/10/29 07:54:38;;;;;;;12.15;4.97;;;13.20;99.90;;;;;;5061698;28;20491;-80
2022/10/29 07:57:03;;;;;;;17.13;5.70;;;13.20;99.90;;;;;;5052614;28;20469;-80
2022/10/29 07:59:29;;;;;;;11.73;5.68;;;13.30;99.90;;;;;;5035686;28;20037;-80
2022/10/29 08:01:55;;;;;;;17.27;6.30;;;13.20;99.90;;;;;;5031457;28;20045;-81
2022/10/29 08:04:20;;;;;;;13.35;5.20;;;13.20;99.90;;;;;;5032764;28;20072;-82
2022/10/29 08:06:47;;;;;;;15.45;5.97;;;13.30;99.90;;;;;;5022031;28;20038;-84
2022/10/29 08:09:14;;;;;;;16.02;6.07;;;13.30;99.90;;;;;;5052487;28;20075;-81
2022/10/29 08:11:40;;;;;;;12.10;4.75;;;13.40;99.90;;;;;;5048968;28;20041;-84
2022/10/29 08:14:06;;;;;;;15.77;5.68;;;13.40;99.90;;;;;;5016143;28;20128;-82
2022/10/29 08:16:31;;;;;;;13.27;5.60;;;13.40;99.90;;;;;;5040292;28;20048;-82
2022/10/29 08:18:57;;;;;;;11.45;4.97;;;13.50;99.90;;;;;;5032388;28;20041;-82
2022/10/29 08:21:23;;;;;;;16.42;6.30;;;13.60;99.90;;;;;;5032346;28;20083;-82
2022/10/29 08:23:48;;;;;;;10.70;5.85;;;13.60;99.90;;;;;;5022651;28;20038;-81
2022/10/29 08:26:14;;;;;;;15.00;6.38;;;13.60;99.90;;;;;;5033449;28;20064;-81
2022/10/29 08:28:41;;;;;;;12.80;5.93;;;13.70;99.90;;;;;;5032383;28;20076;-82
2022/10/29 08:31:08;;;;;;;12.70;6.05;;;13.70;99.90;;;;;;5016072;28;20037;-81
2022/10/29 08:33:33;;;;;;;15.20;6.95;;;13.80;99.90;;;;;;5032659;28;20056;-82
2022/10/29 08:35:59;;;;;;;15.73;6.20;;;13.80;99.90;;;;;;5038237;28;20406;-82
2022/10/29 08:38:25;;;;;;;12.93;6.43;;;13.90;99.90;;;;;;5039732;28;20123;-82
2022/10/29 08:41:11;;;;;;;13.25;6.13;;;13.90;99.90;;;;;;4999682;28;20047;-82
2022/10/29 08:43:43;;;;;;;;;;;13.80;99.90;;;;;;5016013;28;20164;-81
2022/10/29 08:46:40;;;;;;;13.02;6.50;;;13.90;99.90;;;;;;5036387;28;19923;-81
2022/10/29 08:49:21;;;;;;;16.60;6.20;;;13.90;99.90;;;;;;5025238;28;20068;-82
2022/10/29 08:52:12;;;;;;;13.30;6.47;;;14.00;99.90;;;;;;5031706;28;20541;-82
2022/10/29 08:54:40;;;;;;;13.98;7.07;;;14.10;99.90;;;;;;5051944;28;20052;-81
2022/10/29 08:57:18;;;;;;;15.50;6.45;;;14.30;99.90;;;;;;5015212;28;20052;-82
2022/10/29 09:00:13;;;;;;;16.20;6.32;;;14.30;99.90;;;;;;5039934;28;20041;-81
2022/10/29 09:02:39;;;;;;;13.13;6.70;;;14.50;99.90;;;;;;5030853;28;20060;-81
2022/10/29 09:05:11;;;;;;;14.52;6.30;;;14.60;99.90;;;;;;5037026;28;20037;-82
2022/10/29 09:08:11;;;;;;;10.32;5.60;;;14.70;99.90;;;;;;5037920;28;20034;-80
2022/10/29 09:10:40;;;;;;;11.95;5.72;;;14.80;99.90;;;;;;5043715;28;20102;-80
2022/10/29 09:13:21;;;;;;;9.55;4.60;;;14.90;99.90;;;;;;5051554;28;20045;-80
2022/10/29 09:16:22;;;;;;;15.35;6.22;;;15.00;99.90;;;;;;5035313;28;20175;-80
2022/10/29 09:18:48;;;;;;;10.93;4.72;;;15.10;99.90;;;;;;5015946;28;20118;-80
2022/10/29 09:21:17;;;;;;;10.75;4.97;;;15.10;99.90;;;;;;5052259;28;20344;-80
2022/10/29 09:24:12;;;;;;;13.52;6.13;;;15.20;99.90;;;;;;5035470;28;20041;-80
2022/10/29 09:26:52;;;;;;;13.43;6.07;;;15.20;99.90;;;;;;5031175;28;20045;-80
2022/10/29 09:29:37;;;;;;;11.50;5.93;;;15.10;99.90;;;;;;5016440;28;20072;-80
2022/10/29 09:32:08;;;;;;;11.68;6.15;;;15.10;99.90;;;;;;5037446;28;20041;-80
2022/10/29 09:34:46;;;;;;;15.88;5.28;;;15.00;99.90;;;;;;5051341;28;20053;-80
2022/10/29 09:37:20;;;;;;;12.32;5.70;;;15.00;99.90;;;;;;5041383;28;20399;-80
2022/10/29 09:39:46;;;;;;;14.75;5.20;;;15.00;99.90;;;;;;5035715;28;20052;-80
2022/10/29 09:42:25;;;;;;;18.58;7.15;;;15.10;99.90;;;;;;5025504;28;20037;-82
2022/10/29 09:44:54;;;;;;;16.50;6.28;;;15.20;99.90;;;;;;5029783;28;20053;-82
2022/10/29 09:47:23;;;;;;;9.55;5.05;;;15.50;99.90;;;;;;5030603;28;20065;-82
2022/10/29 09:50:21;;;;;;;12.70;5.50;;;15.80;99.90;;;;;;5022518;28;20522;-82
2022/10/29 09:52:48;;;;;;;11.00;4.93;;;16.10;99.90;;;;;;5008811;28;20048;-83
2022/10/29 09:55:27;;;;;;;11.88;5.13;;;16.20;99.90;;;;;;5034056;28;20506;-83
2022/10/29 09:57:55;;;;;;;11.57;4.85;;;16.60;99.90;;;;;;5021791;28;20087;-81
2022/10/29 10:00:27;;;;;;;9.13;5.20;;;16.60;99.90;;;;;;5037795;28;20421;-81
2022/10/29 10:03:10;;;;;;;10.55;5.68;;;16.70;99.90;;;;;;5053692;28;20048;-84
2022/10/29 10:05:56;;;;;;;9.75;4.65;;;16.90;99.90;;;;;;5037482;28;20055;-81
2022/10/29 10:08:22;;;;;;;;;;;17.00;99.90;;;;;;5027694;28;20535;-81
2022/10/29 10:10:56;;;;;;;15.83;5.17;;;17.30;99.90;;;;;;5001993;28;19920;-81
2022/10/29 10:13:35;;;;;;;11.85;4.47;;;17.40;99.90;;;;;;5018682;28;20045;-83
2022/10/29 10:16:03;;;;;;;13.30;4.68;;;17.80;99.90;;;;;;5034622;28;20124;-84
2022/10/29 10:18:32;;;;;;;8.43;4.82;;;18.00;99.90;;;;;;5036195;28;20041;-84
2022/10/29 10:21:05;;;;;;;9.25;4.15;;;18.30;99.90;;;;;;5030528;28;20441;-84
2022/10/29 10:23:44;;;;;;;8.07;4.55;;;18.40;99.90;;;;;;5053108;28;20364;-84
2022/10/29 10:26:31;;;;;;;13.05;3.88;;;18.50;99.90;;;;;;5054681;28;20060;-83
2022/10/29 10:29:03;;;;;;;9.20;4.72;;;18.50;99.90;;;;;;5054413;28;20506;-83
2022/10/29 10:31:29;;;;;;;10.63;4.82;;;18.50;99.90;;;;;;5035981;28;20058;-83
2022/10/29 10:33:55;;;;;;;12.25;4.57;;;18.40;99.90;;;;;;5032862;28;20488;-84
2022/10/29 10:36:25;;;;;;;8.15;3.75;;;18.50;99.90;;;;;;5001116;28;20045;-83
2022/10/29 10:38:57;;;;;;;8.75;4.30;;;18.50;99.90;;;;;;5034236;28;20041;-83
2022/10/29 10:41:33;;;;;;;10.20;4.07;;;18.60;99.90;;;;;;5043620;28;20055;-83
2022/10/29 10:44:04;;;;;;;10.23;3.90;;;18.70;99.90;;;;;;5049396;28;20089;-83
2022/10/29 10:46:38;;;;;;;7.57;4.32;;;18.90;99.90;;;;;;5017626;28;20060;-84
2022/10/29 10:49:10;;;;;;;11.63;4.50;;;18.90;99.90;;;;;;5028038;28;20046;-84
2022/10/29 10:51:37;;;;;;;10.65;3.97;;;19.00;99.90;;;;;;5063349;28;20049;-83
2022/10/29 10:54:22;;;;;;;9.57;4.03;;;19.00;99.90;;;;;;5051964;28;20099;-83
2022/10/29 10:56:57;;;;;;;10.35;4.07;;;19.00;99.90;;;;;;5054003;28;20426;-83
2022/10/29 10:59:46;;;;;;;10.68;4.18;;;18.90;99.90;;;;;;5035039;28;20055;-83
2022/10/29 11:02:41;;;;;;;13.50;4.57;;;18.90;99.90;;;;;;5018055;28;20033;-83
2022/10/29 11:05:22;;;;;;;9.75;4.00;;;19.00;99.90;;;;;;5030771;28;20442;-87
2022/10/29 11:08:20;;;;;;;12.98;4.40;;;19.10;99.90;;;;;;5044747;28;20677;-82
2022/10/29 11:10:56;;;;;;;10.32;4.15;;;19.30;99.90;;;;;;5037711;28;20045;-82
2022/10/29 11:13:25;;;;;;;8.52;4.15;;;19.40;99.90;;;;;;5053856;28;20554;-82
2022/10/29 11:16:10;;;;;;;9.50;4.03;;;19.50;99.90;;;;;;5052804;28;20041;-82
2022/10/29 11:18:50;;;;;;;10.48;3.60;;;19.50;99.90;;;;;;5017813;28;20128;-82
2022/10/29 11:21:47;;;;;;;8.70;3.42;;;19.50;99.90;;;;;;5034484;28;20052;-81
2022/10/29 11:24:45;;;;;;;9.88;4.18;;;19.50;99.90;;;;;;5017250;28;20044;-82
2022/10/29 11:27:26;;;;;;;10.43;4.43;;;19.50;99.90;;;;;;5044696;28;20049;-82
2022/10/29 11:30:05;;;;;;;10.32;4.20;;;19.50;99.90;;;;;;5050271;28;20128;-82
2022/10/29 11:33:06;;;;;;;10.60;4.50;;;19.40;99.90;;;;;;5035173;28;20053;-82
2022/10/29 11:35:57;;;;;;;10.38;4.40;;;19.40;99.90;;;;;;5023652;28;20487;-82
2022/10/29 11:39:02;;;;;;;10.18;3.63;;;19.50;99.90;;;;;;5016931;28;20086;-84
2022/10/29 11:41:41;;;;;;;11.18;4.22;;;19.60;99.90;;;;;;5033173;28;20107;-84
2022/10/29 11:44:11;;;;;;;7.85;3.90;;;19.60;99.90;;;;;;5038157;28;20085;-84
2022/10/29 11:46:42;;;;;;;8.77;3.33;;;19.60;99.90;;;;;;5033542;28;20053;-84
2022/10/29 11:49:38;;;;;;;9.27;3.92;;;19.50;99.90;;;;;;5016713;28;20095;-84
2022/10/29 11:52:31;;;;;;;10.02;3.40;;;19.40;99.90;;;;;;5018483;28;20048;-84
2022/10/29 11:55:24;;;;;;;8.27;4.60;;;19.10;99.90;;;;;;5046962;28;20056;-82
2022/10/29 11:58:00;;;;;;;9.93;3.97;;;19.00;99.90;;;;;;5053213;28;20114;-82
2022/10/29 12:00:31;;;;;;;10.32;3.97;;;18.90;99.90;;;;;;5032779;28;20041;-82
2022/10/29 12:03:00;;;;;;;9.35;3.63;;;;;;;;;;5032970;28;20037;-82
2022/10/29 12:05:47;;;;;;;13.48;4.57;;;19.00;99.90;;;;;;5033230;28;20044;-82
2022/10/29 12:08:19;;;;;;;8.63;4.30;;;19.10;99.90;;;;;;5033005;28;20480;-82
2022/10/29 12:10:58;;;;;;;12.35;4.82;;;19.20;99.90;;;;;;5033392;28;20479;-84
2022/10/29 12:13:44;;;;;;;8.98;4.07;;;19.20;99.90;;;;;;5016282;28;20124;-84
2022/10/29 12:16:25;;;;;;;8.30;3.45;;;19.30;99.90;;;;;;5029688;28;20048;-84
2022/10/29 12:19:01;;;;;;;8.68;4.00;;;19.50;99.90;;;;;;5032735;28;20084;-84
2022/10/29 12:21:37;;;;;;;12.40;4.15;;;19.60;99.90;;;;;;5032579;28;20049;-84
2022/10/29 12:24:14;;;;;;;10.38;3.53;;;19.80;99.90;;;;;;5032623;28;20479;-85
2022/10/29 12:26:45;;;;;;;11.95;4.40;;;20.00;99.90;;;;;;5031694;28;20040;-84
2022/10/29 12:29:15;;;;;;;14.02;3.85;;;20.40;99.90;;;;;;5042912;28;20041;-85
2022/10/29 12:32:11;;;;;;;8.38;3.90;;;20.40;99.90;;;;;;5052725;28;20127;-85
2022/10/29 12:34:54;;;;;;;9.00;3.60;;;20.50;99.90;;;;;;5035602;28;20522;-85
2022/10/29 12:37:47;;;;;;;14.80;4.95;;;20.60;99.90;;;;;;5032527;28;20124;-85
2022/10/29 12:40:21;;;;;;;7.40;3.22;;;20.50;99.90;;;;;;5015631;28;20096;-85
2022/10/29 12:42:48;;;;;;;8.63;3.85;;;20.60;99.90;;;;;;5032062;28;20045;-85
2022/10/29 12:45:26;;;;;;;10.20;5.18;;;20.60;99.90;;;;;;5015496;28;20057;-85
2022/10/29 12:48:06;;;;;;;12.52;5.57;;;20.40;99.90;;;;;;5048140;28;20034;-84
2022/10/29 12:50:53;;;;;;;8.93;4.05;;;20.20;99.90;;;;;;5043797;28;20041;-85
2022/10/29 12:53:39;;;;;;;10.05;3.40;;;20.20;99.90;;;;;;5015480;28;20052;-85
2022/10/29 12:56:06;;;;;;;6.03;3.67;;;20.20;99.90;;;;;;5031831;28;20175;-85
2022/10/29 12:58:49;;;;;;;11.52;3.72;;;20.30;99.90;;;;;;5040687;28;20045;-85
2022/10/29 13:01:27;;;;;;;8.27;3.53;;;20.40;99.90;;;;;;5042193;28;20056;-82
2022/10/29 13:03:56;;;;;;;8.07;3.50;;;20.60;99.90;;;;;;5016497;28;20045;-83
2022/10/29 13:06:55;;;;;;;9.93;4.00;;;21.10;99.90;;;;;;5030564;28;20067;-83
2022/10/29 13:09:30;;;;;;;9.23;3.30;;;21.50;99.90;;;;;;4975453;28;20042;-83